sensor_id;sensor_type;location;lat;lon;timestamp;P1;durP1;ratioP1;P2;durP2;ratioP2
61358;SDS011;47228;46.762;23.598;2022-08-18T00:01:13;16.30;;;11.40;;
61358;SDS011;47228;46.762;23.598;2022-08-18T00:03:44;16.80;;;12.10;;
61358;SDS011;47228;46.762;23.598;2022-08-18T00:06:29;18.40;;;11.80;;
61358;SDS011;47228;46.762;23.598;2022-08-18T00:08:58;17.10;;;11.10;;
61358;SDS011;47228;46.762;23.598;2022-08-18T00:11:29;14.90;;;10.40;;
61358;SDS011;47228;46.762;23.598;2022-08-18T00:14:10;16.30;;;10.70;;
61358;SDS011;47228;46.762;23.598;2022-08-18T00:16:50;14.60;;;11.20;;
61358;SDS011;47228;46.762;23.598;2022-08-18T00:19:20;20.10;;;11.50;;
61358;SDS011;47228;46.762;23.598;2022-08-18T00:22:10;17.20;;;11.10;;
61358;SDS011;47228;46.762;23.598;2022-08-18T00:24:43;16.10;;;10.10;;
61358;SDS011;47228;46.762;23.598;2022-08-18T00:27:19;13.10;;;11.00;;
61358;SDS011;47228;46.762;23.598;2022-08-18T00:29:50;14.30;;;11.30;;
61358;SDS011;47228;46.762;23.598;2022-08-18T00:32:22;15.60;;;11.20;;
61358;SDS011;47228;46.762;23.598;2022-08-18T00:34:53;19.10;;;11.90;;
61358;SDS011;47228;46.762;23.598;2022-08-18T00:37:22;16.70;;;10.90;;
61358;SDS011;47228;46.762;23.598;2022-08-18T00:39:52;15.70;;;10.60;;
61358;SDS011;47228;46.762;23.598;2022-08-18T00:42:30;21.20;;;11.60;;
61358;SDS011;47228;46.762;23.598;2022-08-18T00:44:59;18.70;;;11.40;;
61358;SDS011;47228;46.762;23.598;2022-08-18T00:47:30;22.30;;;12.40;;
61358;SDS011;47228;46.762;23.598;2022-08-18T00:50:18;15.40;;;10.60;;
61358;SDS011;47228;46.762;23.598;2022-08-18T00:52:55;14.80;;;11.20;;
61358;SDS011;47228;46.762;23.598;2022-08-18T00:55:27;13.80;;;11.40;;
61358;SDS011;47228;46.762;23.598;2022-08-18T00:58:02;20.60;;;11.00;;
61358;SDS011;47228;46.762;23.598;2022-08-18T01:00:34;20.10;;;11.80;;
61358;SDS011;47228;46.762;23.598;2022-08-18T01:03:10;17.60;;;12.00;;
61358;SDS011;47228;46.762;23.598;2022-08-18T01:05:42;17.90;;;11.60;;
61358;SDS011;47228;46.762;23.598;2022-08-18T01:08:39;16.60;;;11.30;;
61358;SDS011;47228;46.762;23.598;2022-08-18T01:11:08;17.10;;;11.80;;
61358;SDS011;47228;46.762;23.598;2022-08-18T01:13:39;19.30;;;11.80;;
61358;SDS011;47228;46.762;23.598;2022-08-18T01:16:09;17.00;;;11.30;;
61358;SDS011;47228;46.762;23.598;2022-08-18T01:18:56;15.20;;;11.00;;
61358;SDS011;47228;46.762;23.598;2022-08-18T01:21:44;17.70;;;11.00;;
61358;SDS011;47228;46.762;23.598;2022-08-18T01:24:21;15.90;;;11.40;;
61358;SDS011;47228;46.762;23.598;2022-08-18T01:27:14;19.90;;;12.40;;
61358;SDS011;47228;46.762;23.598;2022-08-18T01:29:46;20.90;;;13.00;;
61358;SDS011;47228;46.762;23.598;2022-08-18T01:32:17;15.40;;;11.30;;
61358;SDS011;47228;46.762;23.598;2022-08-18T01:34:47;16.80;;;11.10;;
61358;SDS011;47228;46.762;23.598;2022-08-18T01:37:18;19.10;;;11.70;;
61358;SDS011;47228;46.762;23.598;2022-08-18T01:39:49;18.70;;;12.80;;
61358;SDS011;47228;46.762;23.598;2022-08-18T01:42:37;14.90;;;12.00;;
61358;SDS011;47228;46.762;23.598;2022-08-18T01:45:06;18.40;;;11.80;;
61358;SDS011;47228;46.762;23.598;2022-08-18T01:47:35;20.20;;;12.30;;
61358;SDS011;47228;46.762;23.598;2022-08-18T01:50:15;14.10;;;12.20;;
61358;SDS011;47228;46.762;23.598;2022-08-18T01:52:44;17.60;;;12.80;;
61358;SDS011;47228;46.762;23.598;2022-08-18T01:55:12;22.00;;;13.20;;
61358;SDS011;47228;46.762;23.598;2022-08-18T01:57:41;18.70;;;12.50;;
61358;SDS011;47228;46.762;23.598;2022-08-18T02:00:13;16.60;;;11.70;;
61358;SDS011;47228;46.762;23.598;2022-08-18T02:02:44;19.70;;;12.60;;
61358;SDS011;47228;46.762;23.598;2022-08-18T02:05:31;17.80;;;12.40;;
61358;SDS011;47228;46.762;23.598;2022-08-18T02:08:04;16.40;;;12.00;;
61358;SDS011;47228;46.762;23.598;2022-08-18T02:10:33;18.40;;;12.30;;
61358;SDS011;47228;46.762;23.598;2022-08-18T02:13:01;17.20;;;11.60;;
61358;SDS011;47228;46.762;23.598;2022-08-18T02:15:30;15.90;;;11.80;;
61358;SDS011;47228;46.762;23.598;2022-08-18T02:17:58;14.90;;;11.60;;
61358;SDS011;47228;46.762;23.598;2022-08-18T02:20:27;19.40;;;11.50;;
61358;SDS011;47228;46.762;23.598;2022-08-18T02:22:55;21.60;;;12.40;;
61358;SDS011;47228;46.762;23.598;2022-08-18T02:25:25;19.60;;;11.80;;
61358;SDS011;47228;46.762;23.598;2022-08-18T02:27:53;16.40;;;12.00;;
61358;SDS011;47228;46.762;23.598;2022-08-18T02:30:21;17.10;;;11.30;;
61358;SDS011;47228;46.762;23.598;2022-08-18T02:32:50;17.00;;;10.80;;
61358;SDS011;47228;46.762;23.598;2022-08-18T02:35:18;19.60;;;12.10;;
61358;SDS011;47228;46.762;23.598;2022-08-18T02:37:46;23.10;;;12.60;;
61358;SDS011;47228;46.762;23.598;2022-08-18T02:40:15;19.60;;;12.80;;
61358;SDS011;47228;46.762;23.598;2022-08-18T02:42:44;14.70;;;11.40;;
61358;SDS011;47228;46.762;23.598;2022-08-18T02:45:14;16.70;;;11.90;;
61358;SDS011;47228;46.762;23.598;2022-08-18T02:47:42;17.10;;;11.30;;
61358;SDS011;47228;46.762;23.598;2022-08-18T02:50:12;18.10;;;12.10;;
61358;SDS011;47228;46.762;23.598;2022-08-18T02:52:40;15.60;;;12.60;;
61358;SDS011;47228;46.762;23.598;2022-08-18T02:55:09;17.20;;;12.10;;
61358;SDS011;47228;46.762;23.598;2022-08-18T02:57:41;17.50;;;11.40;;
61358;SDS011;47228;46.762;23.598;2022-08-18T03:00:12;17.40;;;12.60;;
61358;SDS011;47228;46.762;23.598;2022-08-18T03:02:46;17.00;;;11.50;;
61358;SDS011;47228;46.762;23.598;2022-08-18T03:05:18;20.10;;;12.50;;
61358;SDS011;47228;46.762;23.598;2022-08-18T03:07:46;17.40;;;12.50;;
61358;SDS011;47228;46.762;23.598;2022-08-18T03:10:14;17.80;;;13.50;;
61358;SDS011;47228;46.762;23.598;2022-08-18T03:13:00;17.50;;;13.00;;
61358;SDS011;47228;46.762;23.598;2022-08-18T03:15:29;24.40;;;13.10;;
61358;SDS011;47228;46.762;23.598;2022-08-18T03:17:57;21.50;;;12.40;;
61358;SDS011;47228;46.762;23.598;2022-08-18T03:20:26;18.10;;;12.90;;
61358;SDS011;47228;46.762;23.598;2022-08-18T03:22:58;20.30;;;13.60;;
61358;SDS011;47228;46.762;23.598;2022-08-18T03:25:43;18.00;;;13.50;;
61358;SDS011;47228;46.762;23.598;2022-08-18T03:28:13;19.40;;;12.80;;
61358;SDS011;47228;46.762;23.598;2022-08-18T03:30:43;19.80;;;13.10;;
61358;SDS011;47228;46.762;23.598;2022-08-18T03:33:11;22.80;;;13.80;;
61358;SDS011;47228;46.762;23.598;2022-08-18T03:35:39;19.20;;;14.60;;
61358;SDS011;47228;46.762;23.598;2022-08-18T03:38:08;22.80;;;14.10;;
61358;SDS011;47228;46.762;23.598;2022-08-18T03:40:36;18.90;;;14.10;;
61358;SDS011;47228;46.762;23.598;2022-08-18T03:43:04;20.40;;;13.60;;
61358;SDS011;47228;46.762;23.598;2022-08-18T03:45:53;20.10;;;14.50;;
61358;SDS011;47228;46.762;23.598;2022-08-18T03:48:21;23.20;;;14.50;;
61358;SDS011;47228;46.762;23.598;2022-08-18T03:50:49;18.40;;;14.30;;
61358;SDS011;47228;46.762;23.598;2022-08-18T03:53:17;18.10;;;14.10;;
61358;SDS011;47228;46.762;23.598;2022-08-18T03:55:46;23.10;;;14.00;;
61358;SDS011;47228;46.762;23.598;2022-08-18T03:58:14;24.00;;;15.80;;
61358;SDS011;47228;46.762;23.598;2022-08-18T04:00:42;24.00;;;18.70;;
61358;SDS011;47228;46.762;23.598;2022-08-18T04:03:10;26.80;;;18.30;;
61358;SDS011;47228;46.762;23.598;2022-08-18T04:05:39;32.20;;;20.60;;
61358;SDS011;47228;46.762;23.598;2022-08-18T04:08:07;34.80;;;23.10;;
61358;SDS011;47228;46.762;23.598;2022-08-18T04:10:35;26.00;;;19.10;;
61358;SDS011;47228;46.762;23.598;2022-08-18T04:13:04;24.40;;;16.60;;
61358;SDS011;47228;46.762;23.598;2022-08-18T04:15:32;22.40;;;16.10;;
61358;SDS011;47228;46.762;23.598;2022-08-18T04:18:00;23.00;;;16.20;;
61358;SDS011;47228;46.762;23.598;2022-08-18T04:20:35;25.30;;;16.70;;
61358;SDS011;47228;46.762;23.598;2022-08-18T04:23:03;21.90;;;15.60;;
61358;SDS011;47228;46.762;23.598;2022-08-18T04:25:32;27.90;;;16.60;;
61358;SDS011;47228;46.762;23.598;2022-08-18T04:28:00;22.80;;;15.70;;
61358;SDS011;47228;46.762;23.598;2022-08-18T04:30:30;26.60;;;16.10;;
61358;SDS011;47228;46.762;23.598;2022-08-18T04:32:59;21.30;;;15.50;;
61358;SDS011;47228;46.762;23.598;2022-08-18T04:35:29;23.80;;;16.70;;
61358;SDS011;47228;46.762;23.598;2022-08-18T04:37:57;25.70;;;17.60;;
61358;SDS011;47228;46.762;23.598;2022-08-18T04:40:25;26.40;;;17.40;;
61358;SDS011;47228;46.762;23.598;2022-08-18T04:42:53;25.10;;;17.00;;
61358;SDS011;47228;46.762;23.598;2022-08-18T04:45:22;27.90;;;16.30;;
61358;SDS011;47228;46.762;23.598;2022-08-18T04:47:50;23.90;;;15.70;;
61358;SDS011;47228;46.762;23.598;2022-08-18T04:50:20;28.30;;;17.50;;
61358;SDS011;47228;46.762;23.598;2022-08-18T04:52:51;26.40;;;16.40;;
61358;SDS011;47228;46.762;23.598;2022-08-18T04:55:38;22.30;;;15.50;;
61358;SDS011;47228;46.762;23.598;2022-08-18T04:58:06;23.80;;;14.50;;
61358;SDS011;47228;46.762;23.598;2022-08-18T05:00:34;21.40;;;15.60;;
61358;SDS011;47228;46.762;23.598;2022-08-18T05:03:02;23.70;;;15.40;;
61358;SDS011;47228;46.762;23.598;2022-08-18T05:05:30;23.90;;;15.80;;
61358;SDS011;47228;46.762;23.598;2022-08-18T05:07:58;21.70;;;15.70;;
61358;SDS011;47228;46.762;23.598;2022-08-18T05:10:26;24.20;;;15.00;;
61358;SDS011;47228;46.762;23.598;2022-08-18T05:12:55;20.20;;;13.80;;
61358;SDS011;47228;46.762;23.598;2022-08-18T05:15:23;19.40;;;14.70;;
61358;SDS011;47228;46.762;23.598;2022-08-18T05:17:51;24.50;;;16.00;;
61358;SDS011;47228;46.762;23.598;2022-08-18T05:20:20;23.30;;;15.90;;
61358;SDS011;47228;46.762;23.598;2022-08-18T05:22:49;21.80;;;15.20;;
61358;SDS011;47228;46.762;23.598;2022-08-18T05:25:17;24.60;;;15.10;;
61358;SDS011;47228;46.762;23.598;2022-08-18T05:27:45;23.70;;;16.00;;
61358;SDS011;47228;46.762;23.598;2022-08-18T05:30:14;25.80;;;16.30;;
61358;SDS011;47228;46.762;23.598;2022-08-18T05:32:42;22.60;;;15.10;;
61358;SDS011;47228;46.762;23.598;2022-08-18T05:35:19;24.40;;;15.50;;
61358;SDS011;47228;46.762;23.598;2022-08-18T05:40:31;22.50;;;14.70;;
61358;SDS011;47228;46.762;23.598;2022-08-18T05:43:01;25.30;;;15.20;;
61358;SDS011;47228;46.762;23.598;2022-08-18T05:45:31;26.60;;;16.70;;
61358;SDS011;47228;46.762;23.598;2022-08-18T05:48:01;24.60;;;16.10;;
61358;SDS011;47228;46.762;23.598;2022-08-18T05:50:30;22.30;;;15.90;;
61358;SDS011;47228;46.762;23.598;2022-08-18T05:53:11;23.30;;;14.50;;
61358;SDS011;47228;46.762;23.598;2022-08-18T05:55:47;21.40;;;14.70;;
61358;SDS011;47228;46.762;23.598;2022-08-18T05:58:49;21.00;;;15.10;;
61358;SDS011;47228;46.762;23.598;2022-08-18T06:01:28;24.30;;;14.50;;
61358;SDS011;47228;46.762;23.598;2022-08-18T06:04:04;20.00;;;13.90;;
61358;SDS011;47228;46.762;23.598;2022-08-18T06:06:35;23.30;;;14.30;;
61358;SDS011;47228;46.762;23.598;2022-08-18T06:20:42;20.20;;;13.40;;
61358;SDS011;47228;46.762;23.598;2022-08-18T06:27:08;17.80;;;12.40;;
61358;SDS011;47228;46.762;23.598;2022-08-18T06:32:25;24.40;;;14.00;;
61358;SDS011;47228;46.762;23.598;2022-08-18T06:35:18;20.00;;;13.10;;
61358;SDS011;47228;46.762;23.598;2022-08-18T06:38:14;18.70;;;13.50;;
61358;SDS011;47228;46.762;23.598;2022-08-18T06:44:11;29.60;;;17.00;;
61358;SDS011;47228;46.762;23.598;2022-08-18T06:46:47;31.80;;;18.10;;
61358;SDS011;47228;46.762;23.598;2022-08-18T06:49:42;28.80;;;16.00;;
61358;SDS011;47228;46.762;23.598;2022-08-18T06:52:23;30.00;;;16.70;;
61358;SDS011;47228;46.762;23.598;2022-08-18T06:54:52;30.00;;;16.50;;
61358;SDS011;47228;46.762;23.598;2022-08-18T06:57:25;26.20;;;17.30;;
61358;SDS011;47228;46.762;23.598;2022-08-18T07:00:01;26.90;;;17.10;;
61358;SDS011;47228;46.762;23.598;2022-08-18T07:05:24;27.80;;;16.00;;
61358;SDS011;47228;46.762;23.598;2022-08-18T07:08:05;28.80;;;14.20;;
61358;SDS011;47228;46.762;23.598;2022-08-18T07:10:47;24.80;;;15.40;;
61358;SDS011;47228;46.762;23.598;2022-08-18T07:13:37;25.10;;;14.30;;
61358;SDS011;47228;46.762;23.598;2022-08-18T07:19:29;26.20;;;12.50;;
61358;SDS011;47228;46.762;23.598;2022-08-18T07:22:03;22.10;;;13.40;;
61358;SDS011;47228;46.762;23.598;2022-08-18T07:24:45;23.80;;;13.30;;
61358;SDS011;47228;46.762;23.598;2022-08-18T07:27:19;23.30;;;14.10;;
61358;SDS011;47228;46.762;23.598;2022-08-18T07:32:44;25.70;;;12.30;;
61358;SDS011;47228;46.762;23.598;2022-08-18T07:35:19;20.30;;;11.20;;
61358;SDS011;47228;46.762;23.598;2022-08-18T07:38:05;15.70;;;11.40;;
61358;SDS011;47228;46.762;23.598;2022-08-18T07:41:10;17.80;;;11.40;;
61358;SDS011;47228;46.762;23.598;2022-08-18T07:49:33;17.10;;;11.50;;
61358;SDS011;47228;46.762;23.598;2022-08-18T07:57:26;18.40;;;11.80;;
61358;SDS011;47228;46.762;23.598;2022-08-18T08:00:22;22.50;;;11.20;;
61358;SDS011;47228;46.762;23.598;2022-08-18T08:11:58;18.80;;;11.00;;
61358;SDS011;47228;46.762;23.598;2022-08-18T08:20:05;18.90;;;9.90;;
61358;SDS011;47228;46.762;23.598;2022-08-18T08:25:30;20.30;;;10.40;;
61358;SDS011;47228;46.762;23.598;2022-08-18T08:34:23;16.80;;;9.80;;
61358;SDS011;47228;46.762;23.598;2022-08-18T08:36:49;18.90;;;10.50;;
61358;SDS011;47228;46.762;23.598;2022-08-18T08:39:47;16.00;;;10.60;;
61358;SDS011;47228;46.762;23.598;2022-08-18T08:42:33;17.70;;;9.70;;
61358;SDS011;47228;46.762;23.598;2022-08-18T08:45:08;18.30;;;10.80;;
61358;SDS011;47228;46.762;23.598;2022-08-18T08:47:46;14.50;;;9.60;;
61358;SDS011;47228;46.762;23.598;2022-08-18T08:50:46;20.60;;;10.80;;
61358;SDS011;47228;46.762;23.598;2022-08-18T08:53:23;18.50;;;9.90;;
61358;SDS011;47228;46.762;23.598;2022-08-18T08:56:15;17.90;;;9.10;;
61358;SDS011;47228;46.762;23.598;2022-08-18T08:58:53;17.90;;;9.00;;
61358;SDS011;47228;46.762;23.598;2022-08-18T09:16:07;17.50;;;9.10;;
61358;SDS011;47228;46.762;23.598;2022-08-18T09:18:46;15.40;;;9.00;;
61358;SDS011;47228;46.762;23.598;2022-08-18T09:40:57;12.70;;;8.20;;
61358;SDS011;47228;46.762;23.598;2022-08-18T09:44:12;19.10;;;8.60;;
61358;SDS011;47228;46.762;23.598;2022-08-18T09:46:53;12.20;;;8.40;;
61358;SDS011;47228;46.762;23.598;2022-08-18T09:51:56;11.20;;;8.30;;
61358;SDS011;47228;46.762;23.598;2022-08-18T09:54:30;12.10;;;8.30;;
61358;SDS011;47228;46.762;23.598;2022-08-18T09:57:05;11.40;;;8.10;;
61358;SDS011;47228;46.762;23.598;2022-08-18T10:02:05;12.40;;;8.30;;
61358;SDS011;47228;46.762;23.598;2022-08-18T10:04:45;13.00;;;8.00;;
61358;SDS011;47228;46.762;23.598;2022-08-18T10:07:29;14.50;;;8.20;;
61358;SDS011;47228;46.762;23.598;2022-08-18T10:13:28;12.80;;;7.80;;
61358;SDS011;47228;46.762;23.598;2022-08-18T10:22:07;11.00;;;7.20;;
61358;SDS011;47228;46.762;23.598;2022-08-18T10:24:53;14.60;;;7.20;;
61358;SDS011;47228;46.762;23.598;2022-08-18T10:27:47;12.10;;;6.70;;
61358;SDS011;47228;46.762;23.598;2022-08-18T10:33:02;12.30;;;6.60;;
61358;SDS011;47228;46.762;23.598;2022-08-18T10:35:57;9.60;;;6.40;;
61358;SDS011;47228;46.762;23.598;2022-08-18T10:38:42;11.60;;;6.50;;
61358;SDS011;47228;46.762;23.598;2022-08-18T10:41:21;10.50;;;6.60;;
61358;SDS011;47228;46.762;23.598;2022-08-18T10:43:58;11.00;;;6.60;;
61358;SDS011;47228;46.762;23.598;2022-08-18T10:46:47;8.50;;;6.10;;
61358;SDS011;47228;46.762;23.598;2022-08-18T10:49:18;11.30;;;6.90;;
61358;SDS011;47228;46.762;23.598;2022-08-18T11:00:12;12.40;;;6.70;;
61358;SDS011;47228;46.762;23.598;2022-08-18T11:06:02;11.30;;;6.20;;
61358;SDS011;47228;46.762;23.598;2022-08-18T11:08:42;10.20;;;5.80;;
61358;SDS011;47228;46.762;23.598;2022-08-18T11:11:32;8.00;;;5.70;;
61358;SDS011;47228;46.762;23.598;2022-08-18T11:19:45;10.40;;;6.40;;
61358;SDS011;47228;46.762;23.598;2022-08-18T11:22:21;9.80;;;5.90;;
61358;SDS011;47228;46.762;23.598;2022-08-18T11:25:00;11.80;;;5.60;;
61358;SDS011;47228;46.762;23.598;2022-08-18T11:27:32;8.80;;;6.20;;
61358;SDS011;47228;46.762;23.598;2022-08-18T11:30:07;9.30;;;6.10;;
61358;SDS011;47228;46.762;23.598;2022-08-18T11:32:40;9.80;;;6.00;;
61358;SDS011;47228;46.762;23.598;2022-08-18T11:35:19;10.00;;;6.10;;
61358;SDS011;47228;46.762;23.598;2022-08-18T11:37:55;13.40;;;6.10;;
61358;SDS011;47228;46.762;23.598;2022-08-18T11:40:31;11.30;;;5.70;;
61358;SDS011;47228;46.762;23.598;2022-08-18T11:43:23;9.30;;;6.00;;
61358;SDS011;47228;46.762;23.598;2022-08-18T11:46:23;8.10;;;6.00;;
61358;SDS011;47228;46.762;23.598;2022-08-18T11:48:59;9.10;;;5.80;;
61358;SDS011;47228;46.762;23.598;2022-08-18T11:55:00;11.10;;;6.00;;
61358;SDS011;47228;46.762;23.598;2022-08-18T11:57:51;9.70;;;5.20;;
61358;SDS011;47228;46.762;23.598;2022-08-18T12:05:53;8.80;;;6.00;;
61358;SDS011;47228;46.762;23.598;2022-08-18T12:08:33;9.00;;;5.80;;
61358;SDS011;47228;46.762;23.598;2022-08-18T12:11:25;9.30;;;5.40;;
61358;SDS011;47228;46.762;23.598;2022-08-18T12:13:59;8.80;;;5.60;;
61358;SDS011;47228;46.762;23.598;2022-08-18T12:16:53;10.30;;;5.50;;
61358;SDS011;47228;46.762;23.598;2022-08-18T12:19:22;10.30;;;5.60;;
61358;SDS011;47228;46.762;23.598;2022-08-18T12:21:54;10.70;;;5.40;;
61358;SDS011;47228;46.762;23.598;2022-08-18T12:24:29;9.30;;;5.40;;
61358;SDS011;47228;46.762;23.598;2022-08-18T12:27:05;8.10;;;5.20;;
61358;SDS011;47228;46.762;23.598;2022-08-18T12:29:49;7.40;;;5.50;;
61358;SDS011;47228;46.762;23.598;2022-08-18T12:32:20;11.50;;;5.80;;
61358;SDS011;47228;46.762;23.598;2022-08-18T12:35:11;11.50;;;6.00;;
61358;SDS011;47228;46.762;23.598;2022-08-18T12:37:41;9.10;;;5.60;;
61358;SDS011;47228;46.762;23.598;2022-08-18T12:40:30;12.20;;;5.80;;
61358;SDS011;47228;46.762;23.598;2022-08-18T12:42:59;11.20;;;5.50;;
61358;SDS011;47228;46.762;23.598;2022-08-18T12:45:28;7.20;;;5.50;;
61358;SDS011;47228;46.762;23.598;2022-08-18T12:47:57;8.40;;;5.60;;
61358;SDS011;47228;46.762;23.598;2022-08-18T12:50:31;9.30;;;5.60;;
61358;SDS011;47228;46.762;23.598;2022-08-18T12:53:10;11.80;;;5.90;;
61358;SDS011;47228;46.762;23.598;2022-08-18T12:55:40;11.70;;;5.40;;
61358;SDS011;47228;46.762;23.598;2022-08-18T12:58:12;11.20;;;5.80;;
61358;SDS011;47228;46.762;23.598;2022-08-18T13:00:41;8.30;;;5.70;;
61358;SDS011;47228;46.762;23.598;2022-08-18T13:03:09;9.30;;;6.00;;
61358;SDS011;47228;46.762;23.598;2022-08-18T13:05:37;8.50;;;5.70;;
61358;SDS011;47228;46.762;23.598;2022-08-18T13:08:08;9.60;;;6.20;;
61358;SDS011;47228;46.762;23.598;2022-08-18T13:11:04;8.70;;;5.90;;
61358;SDS011;47228;46.762;23.598;2022-08-18T13:13:48;10.40;;;5.90;;
61358;SDS011;47228;46.762;23.598;2022-08-18T13:16:23;11.70;;;6.50;;
61358;SDS011;47228;46.762;23.598;2022-08-18T13:19:07;10.90;;;6.50;;
61358;SDS011;47228;46.762;23.598;2022-08-18T13:21:37;8.40;;;5.70;;
61358;SDS011;47228;46.762;23.598;2022-08-18T13:24:09;10.10;;;6.70;;
61358;SDS011;47228;46.762;23.598;2022-08-18T13:26:43;13.90;;;6.50;;
61358;SDS011;47228;46.762;23.598;2022-08-18T13:29:15;11.60;;;6.30;;
61358;SDS011;47228;46.762;23.598;2022-08-18T13:31:44;9.70;;;6.70;;
61358;SDS011;47228;46.762;23.598;2022-08-18T13:34:27;10.20;;;6.50;;
61358;SDS011;47228;46.762;23.598;2022-08-18T13:39:25;10.50;;;6.20;;
61358;SDS011;47228;46.762;23.598;2022-08-18T13:42:01;8.70;;;6.10;;
61358;SDS011;47228;46.762;23.598;2022-08-18T13:44:50;9.20;;;5.90;;
61358;SDS011;47228;46.762;23.598;2022-08-18T13:47:20;10.20;;;6.20;;
61358;SDS011;47228;46.762;23.598;2022-08-18T13:49:50;13.50;;;9.00;;
61358;SDS011;47228;46.762;23.598;2022-08-18T13:52:27;10.00;;;7.70;;
61358;SDS011;47228;46.762;23.598;2022-08-18T13:55:13;9.60;;;7.20;;
61358;SDS011;47228;46.762;23.598;2022-08-18T14:00:18;13.50;;;6.50;;
61358;SDS011;47228;46.762;23.598;2022-08-18T14:02:59;10.30;;;6.30;;
61358;SDS011;47228;46.762;23.598;2022-08-18T14:05:32;10.80;;;6.10;;
61358;SDS011;47228;46.762;23.598;2022-08-18T14:08:18;9.30;;;5.90;;
61358;SDS011;47228;46.762;23.598;2022-08-18T14:10:47;7.60;;;5.50;;
61358;SDS011;47228;46.762;23.598;2022-08-18T14:13:17;10.70;;;6.40;;
61358;SDS011;47228;46.762;23.598;2022-08-18T14:15:52;10.60;;;5.80;;
61358;SDS011;47228;46.762;23.598;2022-08-18T14:18:23;9.80;;;5.90;;
61358;SDS011;47228;46.762;23.598;2022-08-18T14:20:57;9.10;;;6.80;;
61358;SDS011;47228;46.762;23.598;2022-08-18T14:23:50;8.20;;;6.30;;
61358;SDS011;47228;46.762;23.598;2022-08-18T14:26:41;9.60;;;5.80;;
61358;SDS011;47228;46.762;23.598;2022-08-18T14:29:17;9.30;;;5.90;;
61358;SDS011;47228;46.762;23.598;2022-08-18T14:32:05;10.00;;;6.00;;
61358;SDS011;47228;46.762;23.598;2022-08-18T14:34:34;9.90;;;6.10;;
61358;SDS011;47228;46.762;23.598;2022-08-18T14:37:03;10.20;;;7.20;;
61358;SDS011;47228;46.762;23.598;2022-08-18T14:39:36;13.20;;;7.40;;
61358;SDS011;47228;46.762;23.598;2022-08-18T14:42:04;10.20;;;6.80;;
61358;SDS011;47228;46.762;23.598;2022-08-18T14:44:38;9.40;;;5.80;;
61358;SDS011;47228;46.762;23.598;2022-08-18T14:47:08;7.20;;;5.60;;
61358;SDS011;47228;46.762;23.598;2022-08-18T14:49:37;7.60;;;5.80;;
61358;SDS011;47228;46.762;23.598;2022-08-18T14:52:14;12.30;;;6.50;;
61358;SDS011;47228;46.762;23.598;2022-08-18T14:54:43;9.70;;;5.70;;
61358;SDS011;47228;46.762;23.598;2022-08-18T14:57:17;10.00;;;5.80;;
61358;SDS011;47228;46.762;23.598;2022-08-18T14:59:52;11.40;;;5.90;;
61358;SDS011;47228;46.762;23.598;2022-08-18T15:02:24;11.00;;;5.70;;
61358;SDS011;47228;46.762;23.598;2022-08-18T15:04:52;9.40;;;6.00;;
61358;SDS011;47228;46.762;23.598;2022-08-18T15:07:24;11.80;;;6.10;;
61358;SDS011;47228;46.762;23.598;2022-08-18T15:09:53;8.10;;;5.50;;
61358;SDS011;47228;46.762;23.598;2022-08-18T15:12:42;8.00;;;5.70;;
61358;SDS011;47228;46.762;23.598;2022-08-18T15:15:11;9.50;;;6.40;;
61358;SDS011;47228;46.762;23.598;2022-08-18T15:17:45;9.50;;;6.10;;
61358;SDS011;47228;46.762;23.598;2022-08-18T15:20:21;9.50;;;5.90;;
61358;SDS011;47228;46.762;23.598;2022-08-18T15:23:00;9.50;;;5.40;;
61358;SDS011;47228;46.762;23.598;2022-08-18T15:25:55;8.80;;;6.40;;
61358;SDS011;47228;46.762;23.598;2022-08-18T15:28:25;9.50;;;6.10;;
61358;SDS011;47228;46.762;23.598;2022-08-18T15:30:54;9.00;;;5.70;;
61358;SDS011;47228;46.762;23.598;2022-08-18T15:33:43;9.70;;;6.20;;
61358;SDS011;47228;46.762;23.598;2022-08-18T15:36:18;9.10;;;6.00;;
61358;SDS011;47228;46.762;23.598;2022-08-18T15:38:56;11.40;;;6.40;;
61358;SDS011;47228;46.762;23.598;2022-08-18T15:41:46;10.70;;;6.40;;
61358;SDS011;47228;46.762;23.598;2022-08-18T15:44:21;8.70;;;5.90;;
61358;SDS011;47228;46.762;23.598;2022-08-18T15:46:49;9.80;;;5.80;;
61358;SDS011;47228;46.762;23.598;2022-08-18T15:49:20;9.90;;;5.50;;
61358;SDS011;47228;46.762;23.598;2022-08-18T15:51:49;8.40;;;5.80;;
61358;SDS011;47228;46.762;23.598;2022-08-18T15:54:19;8.30;;;5.90;;
61358;SDS011;47228;46.762;23.598;2022-08-18T15:56:47;7.90;;;5.90;;
61358;SDS011;47228;46.762;23.598;2022-08-18T15:59:25;8.70;;;5.50;;
61358;SDS011;47228;46.762;23.598;2022-08-18T16:02:06;10.50;;;6.30;;
61358;SDS011;47228;46.762;23.598;2022-08-18T16:04:38;8.10;;;5.80;;
61358;SDS011;47228;46.762;23.598;2022-08-18T16:07:09;9.10;;;5.90;;
61358;SDS011;47228;46.762;23.598;2022-08-18T16:09:37;9.30;;;6.50;;
61358;SDS011;47228;46.762;23.598;2022-08-18T16:12:07;8.10;;;6.20;;
61358;SDS011;47228;46.762;23.598;2022-08-18T16:14:37;10.60;;;6.40;;
61358;SDS011;47228;46.762;23.598;2022-08-18T16:17:07;8.70;;;6.20;;
61358;SDS011;47228;46.762;23.598;2022-08-18T16:19:44;9.90;;;6.30;;
61358;SDS011;47228;46.762;23.598;2022-08-18T16:22:12;9.50;;;6.20;;
61358;SDS011;47228;46.762;23.598;2022-08-18T16:24:41;7.90;;;6.00;;
61358;SDS011;47228;46.762;23.598;2022-08-18T16:27:10;10.60;;;6.10;;
61358;SDS011;47228;46.762;23.598;2022-08-18T16:29:39;8.40;;;5.90;;
61358;SDS011;47228;46.762;23.598;2022-08-18T16:32:07;9.80;;;6.40;;
61358;SDS011;47228;46.762;23.598;2022-08-18T16:34:43;9.20;;;6.20;;
61358;SDS011;47228;46.762;23.598;2022-08-18T16:37:11;9.80;;;6.10;;
61358;SDS011;47228;46.762;23.598;2022-08-18T16:39:39;10.80;;;6.50;;
61358;SDS011;47228;46.762;23.598;2022-08-18T16:42:07;10.90;;;6.50;;
61358;SDS011;47228;46.762;23.598;2022-08-18T16:44:35;9.50;;;6.20;;
61358;SDS011;47228;46.762;23.598;2022-08-18T16:47:04;12.10;;;6.50;;
61358;SDS011;47228;46.762;23.598;2022-08-18T16:49:32;11.60;;;6.60;;
61358;SDS011;47228;46.762;23.598;2022-08-18T16:52:01;10.80;;;6.60;;
61358;SDS011;47228;46.762;23.598;2022-08-18T16:54:30;10.20;;;6.30;;
61358;SDS011;47228;46.762;23.598;2022-08-18T16:56:59;10.10;;;6.50;;
61358;SDS011;47228;46.762;23.598;2022-08-18T16:59:27;9.50;;;6.10;;
61358;SDS011;47228;46.762;23.598;2022-08-18T17:02:13;10.10;;;6.70;;
61358;SDS011;47228;46.762;23.598;2022-08-18T17:05:00;8.20;;;5.90;;
61358;SDS011;47228;46.762;23.598;2022-08-18T17:07:30;7.70;;;5.60;;
61358;SDS011;47228;46.762;23.598;2022-08-18T17:10:02;8.80;;;6.10;;
61358;SDS011;47228;46.762;23.598;2022-08-18T17:12:32;12.00;;;6.50;;
61358;SDS011;47228;46.762;23.598;2022-08-18T17:15:00;8.30;;;6.10;;
61358;SDS011;47228;46.762;23.598;2022-08-18T17:17:29;10.50;;;6.20;;
61358;SDS011;47228;46.762;23.598;2022-08-18T17:19:58;8.60;;;6.20;;
61358;SDS011;47228;46.762;23.598;2022-08-18T17:22:26;15.90;;;6.50;;
61358;SDS011;47228;46.762;23.598;2022-08-18T17:24:55;10.20;;;6.10;;
61358;SDS011;47228;46.762;23.598;2022-08-18T17:27:30;12.80;;;6.70;;
61358;SDS011;47228;46.762;23.598;2022-08-18T17:30:05;10.90;;;5.90;;
61358;SDS011;47228;46.762;23.598;2022-08-18T17:32:52;10.40;;;5.90;;